createdAt,value
2023-01-13T00:00:07.307Z,94.72
2023-01-13T00:04:01.243Z,94.59
2023-01-13T00:07:53.959Z,94.43
2023-01-13T00:11:48.049Z,94.50
2023-01-13T00:15:40.943Z,94.55
2023-01-13T00:19:33.841Z,94.73
2023-01-13T00:23:29.008Z,94.11
2023-01-13T00:27:24.212Z,94.05
2023-01-13T00:31:20.721Z,93.59
2023-01-13T00:35:13.710Z,94.07
2023-01-13T00:39:06.845Z,94.18
2023-01-13T00:43:17.921Z,94.13
2023-01-13T00:47:10.934Z,94.13
2023-01-13T00:51:11.013Z,94.29
2023-01-13T00:55:03.876Z,94.89
2023-01-13T00:58:59.202Z,94.42
2023-01-13T01:02:51.968Z,94.05
2023-01-13T01:06:44.869Z,94.21
2023-01-13T01:10:37.670Z,94.71
2023-01-13T01:14:30.692Z,94.71
2023-01-13T01:18:23.717Z,95.12
2023-01-13T01:22:16.492Z,94.89
2023-01-13T01:26:13.410Z,95.10
2023-01-13T01:30:06.824Z,95.17
2023-01-13T01:34:01.034Z,95.35
2023-01-13T01:37:53.773Z,94.57
2023-01-13T01:42:07.586Z,95.04
2023-01-13T01:46:00.273Z,94.97
2023-01-13T01:49:53.485Z,94.94
2023-01-13T01:53:48.448Z,94.45
2023-01-13T01:57:41.234Z,94.27
2023-01-13T02:01:34.609Z,93.83
2023-01-13T02:05:27.732Z,94.29
2023-01-13T02:09:20.623Z,94.21
2023-01-13T02:13:14.173Z,94.46
2023-01-13T02:17:09.965Z,94.51
2023-01-13T02:21:21.881Z,94.43
2023-01-13T02:25:44.892Z,94.51
2023-01-13T02:30:11.766Z,94.60
2023-01-13T02:34:26.207Z,94.35
2023-01-13T02:38:25.005Z,94.36
2023-01-13T02:42:50.001Z,94.40
2023-01-13T02:46:52.124Z,94.88
2023-01-13T02:50:51.261Z,95.02
2023-01-13T02:54:50.186Z,94.78
2023-01-13T02:58:45.634Z,94.70
2023-01-13T03:02:39.021Z,94.46
2023-01-13T03:06:52.083Z,94.49
2023-01-13T03:10:53.396Z,94.77
2023-01-13T03:15:02.132Z,94.83
2023-01-13T03:19:01.859Z,95.21
2023-01-13T03:23:08.710Z,95.08
2023-01-13T03:27:11.833Z,95.33
2023-01-13T03:31:21.052Z,94.91
2023-01-13T03:35:19.332Z,95.00
2023-01-13T03:39:18.259Z,95.01
2023-01-13T03:43:34.526Z,95.22
2023-01-13T03:47:39.366Z,95.43
2023-01-13T03:51:35.776Z,95.34
2023-01-13T03:55:34.351Z,95.21
2023-01-13T03:59:33.202Z,95.24
2023-01-13T04:03:52.729Z,94.76
2023-01-13T04:08:04.139Z,94.95
2023-01-13T04:12:11.490Z,94.86
2023-01-13T04:16:07.241Z,94.78
2023-01-13T04:20:00.687Z,94.89
2023-01-13T04:23:54.148Z,94.99
2023-01-13T04:27:46.814Z,94.26
2023-01-13T04:31:39.855Z,94.58
2023-01-13T04:35:34.402Z,93.91
2023-01-13T04:39:27.224Z,94.31
2023-01-13T04:43:20.121Z,94.31
2023-01-13T04:47:12.952Z,94.71
2023-01-13T04:51:06.236Z,94.86
2023-01-13T04:54:58.863Z,94.06
2023-01-13T04:58:51.597Z,94.18
2023-01-13T05:02:44.361Z,94.71
2023-01-13T05:06:37.029Z,94.56
2023-01-13T05:10:29.869Z,94.43
2023-01-13T05:14:41.259Z,94.35
2023-01-13T05:18:34.044Z,94.40
2023-01-13T05:22:45.282Z,94.62
2023-01-13T05:26:38.032Z,94.52
2023-01-13T05:30:38.300Z,94.34
2023-01-13T05:34:32.618Z,94.27
2023-01-13T05:38:25.407Z,94.87
2023-01-13T05:42:36.665Z,94.40
2023-01-13T05:46:29.752Z,93.94
2023-01-13T05:50:22.342Z,94.43
2023-01-13T05:54:15.246Z,94.15
2023-01-13T05:58:09.859Z,94.06
2023-01-13T06:02:02.885Z,94.46
2023-01-13T06:06:04.328Z,94.70
2023-01-13T06:09:57.119Z,94.78
2023-01-13T06:13:49.920Z,94.71
2023-01-13T06:17:42.924Z,94.73
2023-01-13T06:21:36.051Z,94.38
2023-01-13T06:25:28.716Z,94.39
2023-01-13T06:29:21.617Z,93.89
2023-01-13T06:33:17.853Z,93.81
2023-01-13T06:37:14.526Z,93.51
2023-01-13T06:41:08.505Z,93.81
2023-01-13T06:45:01.217Z,94.22
2023-01-13T06:48:53.944Z,93.56
2023-01-13T06:52:47.037Z,93.73
2023-01-13T06:56:39.959Z,93.27
2023-01-13T07:00:36.478Z,93.87
2023-01-13T07:04:30.499Z,93.97
2023-01-13T07:08:24.356Z,94.09
2023-01-13T07:12:16.874Z,94.06
2023-01-13T07:16:10.210Z,94.12
2023-01-13T07:20:03.149Z,93.72
2023-01-13T07:23:55.880Z,93.79
2023-01-13T07:27:48.725Z,94.01
2023-01-13T07:31:41.349Z,94.15
2023-01-13T07:35:34.328Z,94.11
2023-01-13T07:39:26.968Z,93.83
2023-01-13T07:43:34.690Z,93.95
2023-01-13T07:47:27.214Z,94.07
2023-01-13T07:51:19.924Z,94.00
2023-01-13T07:55:12.860Z,94.59
2023-01-13T07:59:05.938Z,94.70
2023-01-13T08:03:01.017Z,94.65
2023-01-13T08:06:53.780Z,94.34
2023-01-13T08:10:46.749Z,94.09
2023-01-13T08:14:39.396Z,94.18
2023-01-13T08:18:34.923Z,93.98
2023-01-13T08:22:27.587Z,94.53
2023-01-13T08:26:20.327Z,94.31
2023-01-13T08:30:12.836Z,94.26
2023-01-13T08:34:07.160Z,94.11
2023-01-13T08:38:00.034Z,93.90
2023-01-13T08:41:55.730Z,93.94
2023-01-13T08:46:02.333Z,93.59
2023-01-13T08:49:55.262Z,92.97
2023-01-13T08:53:47.882Z,93.18
2023-01-13T08:57:40.733Z,92.60
2023-01-13T09:01:34.612Z,92.56
2023-01-13T09:05:27.408Z,92.45
2023-01-13T09:09:20.679Z,92.69
2023-01-13T09:13:14.147Z,92.93
2023-01-13T09:17:08.374Z,92.67
2023-01-13T09:21:01.267Z,92.77
2023-01-13T09:24:55.787Z,92.48
2023-01-13T09:28:48.586Z,92.73
2023-01-13T09:32:41.356Z,92.41
2023-01-13T09:36:34.192Z,92.32
2023-01-13T09:40:27.282Z,92.73
2023-01-13T09:44:26.158Z,91.83
2023-01-13T09:48:18.872Z,92.20
2023-01-13T09:52:21.976Z,92.28
2023-01-13T09:56:14.924Z,92.54
2023-01-13T10:00:29.050Z,92.12
2023-01-13T10:04:21.983Z,91.36
2023-01-13T10:08:29.949Z,92.14
2023-01-13T10:12:42.652Z,90.91
2023-01-13T10:16:58.751Z,89.75
2023-01-13T10:21:13.539Z,90.95
2023-01-13T10:25:41.581Z,90.63
2023-01-13T10:29:36.520Z,91.10
2023-01-13T10:33:29.544Z,91.42
2023-01-13T10:37:26.292Z,90.61
2023-01-13T10:41:27.851Z,91.22
2023-01-13T10:45:25.248Z,90.79
2023-01-13T10:49:36.629Z,89.07
2023-01-13T10:53:31.331Z,89.21
2023-01-13T10:57:28.567Z,89.49
2023-01-13T11:01:28.519Z,90.40
2023-01-13T11:05:25.152Z,90.11
2023-01-13T11:09:21.055Z,89.54
2023-01-13T11:13:21.991Z,90.54
2023-01-13T11:17:42.389Z,90.79
2023-01-13T11:21:57.431Z,90.77
2023-01-13T11:25:55.123Z,90.89
2023-01-13T11:30:10.146Z,90.62
2023-01-13T11:34:19.258Z,90.80
2023-01-13T11:38:38.095Z,89.55
2023-01-13T11:42:42.093Z,89.83
2023-01-13T11:46:34.944Z,90.22
2023-01-13T11:50:48.434Z,89.01
2023-01-13T11:55:10.226Z,89.10
2023-01-13T11:59:40.122Z,89.28
2023-01-13T12:03:43.696Z,89.50
2023-01-13T12:07:51.502Z,89.68
2023-01-13T12:12:19.592Z,89.74
2023-01-13T12:16:26.015Z,89.66
2023-01-13T12:20:44.355Z,89.41
2023-01-13T12:24:58.354Z,89.09
2023-01-13T12:29:01.525Z,88.70
2023-01-13T12:33:14.042Z,88.53
2023-01-13T12:37:25.428Z,87.76
2023-01-13T12:41:28.039Z,87.74
2023-01-13T12:45:25.232Z,87.50
2023-01-13T12:49:24.061Z,87.57
2023-01-13T12:53:34.702Z,87.02
2023-01-13T12:57:29.687Z,87.68
2023-01-13T13:01:36.735Z,87.61
2023-01-13T13:05:41.795Z,87.62
2023-01-13T13:09:44.086Z,87.77
2023-01-13T13:13:48.608Z,88.34
2023-01-13T13:17:42.185Z,88.53
2023-01-13T13:22:13.545Z,87.64
2023-01-13T13:26:31.176Z,88.03
2023-01-13T13:30:29.636Z,88.78
2023-01-13T13:34:35.873Z,88.16
2023-01-13T13:39:10.845Z,88.63
2023-01-13T13:43:30.387Z,89.04
2023-01-13T13:47:23.178Z,88.74
2023-01-13T13:52:07.108Z,88.74
2023-01-13T13:56:03.230Z,89.51
2023-01-13T13:59:59.176Z,89.24
2023-01-13T14:04:14.765Z,89.99
2023-01-13T14:08:16.528Z,89.32
2023-01-13T14:12:20.256Z,89.31
2023-01-13T14:16:15.829Z,88.96
2023-01-13T14:20:17.439Z,87.52
2023-01-13T14:24:15.808Z,87.31
2023-01-13T14:28:20.813Z,86.46
2023-01-13T14:32:20.315Z,87.55
2023-01-13T14:36:15.336Z,88.50
2023-01-13T14:40:37.443Z,88.65
2023-01-13T14:44:36.219Z,88.75
2023-01-13T14:48:36.247Z,89.28
2023-01-13T14:52:49.426Z,89.57
2023-01-13T14:56:47.357Z,89.30
2023-01-13T15:00:40.356Z,89.63
2023-01-13T15:04:37.594Z,89.95
2023-01-13T15:08:35.167Z,89.60
2023-01-13T15:12:36.142Z,89.70
2023-01-13T15:16:34.628Z,89.93
2023-01-13T15:20:28.407Z,89.58
2023-01-13T15:24:21.206Z,89.55
2023-01-13T15:28:19.240Z,90.03
2023-01-13T15:32:19.709Z,89.61
2023-01-13T15:36:33.057Z,89.86
2023-01-13T15:40:31.699Z,89.95
2023-01-13T15:44:42.963Z,89.99
2023-01-13T15:48:36.511Z,90.19
2023-01-13T15:52:30.220Z,90.34
2023-01-13T15:56:26.824Z,89.88
2023-01-13T16:00:22.229Z,89.31
2023-01-13T16:04:14.985Z,90.13
2023-01-13T16:08:25.450Z,90.06
2023-01-13T16:12:18.263Z,89.50
2023-01-13T16:16:20.288Z,89.54
2023-01-13T16:20:16.274Z,89.87
2023-01-13T16:24:10.592Z,89.94
2023-01-13T16:28:03.634Z,89.30
2023-01-13T16:31:56.434Z,89.91
2023-01-13T16:36:12.001Z,90.43
2023-01-13T16:40:02.995Z,90.27
2023-01-13T16:43:55.672Z,89.87
2023-01-13T16:47:49.167Z,90.25
2023-01-13T16:51:42.464Z,90.32
2023-01-13T16:55:40.103Z,90.51
2023-01-13T16:59:32.985Z,90.81
2023-01-13T17:03:25.796Z,91.32
2023-01-13T17:07:19.086Z,90.86
2023-01-13T17:11:12.796Z,90.53
2023-01-13T17:15:06.924Z,90.36
2023-01-13T17:19:02.996Z,90.80
2023-01-13T17:22:58.533Z,90.96
2023-01-13T17:26:52.223Z,91.43
2023-01-13T17:30:45.209Z,91.11
2023-01-13T17:34:40.368Z,90.76
2023-01-13T17:38:34.055Z,90.50
2023-01-13T17:42:30.014Z,91.03
2023-01-13T17:46:23.509Z,91.55
2023-01-13T17:50:19.831Z,91.34
2023-01-13T17:54:13.033Z,91.81
2023-01-13T17:58:06.347Z,91.56
2023-01-13T18:01:59.651Z,91.34
2023-01-13T18:05:52.679Z,92.14
2023-01-13T18:09:46.002Z,91.52
2023-01-13T18:13:43.637Z,91.12
2023-01-13T18:17:37.008Z,90.83
2023-01-13T18:21:50.876Z,90.53
2023-01-13T18:26:03.251Z,90.77
2023-01-13T18:29:58.992Z,91.44
2023-01-13T18:33:53.179Z,91.00
2023-01-13T18:37:46.001Z,91.36
2023-01-13T18:41:59.368Z,91.18
2023-01-13T18:45:52.706Z,91.28
2023-01-13T18:49:47.241Z,91.37
2023-01-13T18:53:40.213Z,91.43
2023-01-13T18:57:35.945Z,92.05
2023-01-13T19:01:30.176Z,92.04
2023-01-13T19:05:24.028Z,91.84
2023-01-13T19:09:27.029Z,91.89
2023-01-13T19:13:20.496Z,92.46
2023-01-13T19:17:16.798Z,92.37
2023-01-13T19:21:10.376Z,92.42
2023-01-13T19:25:03.948Z,92.87
2023-01-13T19:28:56.891Z,92.62
2023-01-13T19:32:50.691Z,93.04
2023-01-13T19:36:44.887Z,92.97
2023-01-13T19:40:38.816Z,92.65
2023-01-13T19:44:51.023Z,92.65
2023-01-13T19:48:44.651Z,92.74
2023-01-13T19:52:38.406Z,92.98
2023-01-13T19:56:31.958Z,93.00
2023-01-13T20:00:25.316Z,93.19
2023-01-13T20:04:27.007Z,92.87
2023-01-13T20:08:22.820Z,93.02
2023-01-13T20:12:16.840Z,92.03
2023-01-13T20:16:10.977Z,92.23
2023-01-13T20:20:05.916Z,92.05
2023-01-13T20:24:01.234Z,91.86
2023-01-13T20:27:56.124Z,91.63
2023-01-13T20:31:50.749Z,91.88
2023-01-13T20:35:45.406Z,91.90
2023-01-13T20:39:40.285Z,91.70
2023-01-13T20:43:33.363Z,91.63
2023-01-13T20:47:31.245Z,91.29
2023-01-13T20:51:25.123Z,90.87
2023-01-13T20:55:18.524Z,91.27
2023-01-13T20:59:11.677Z,91.23
2023-01-13T21:03:05.470Z,91.19
2023-01-13T21:06:58.895Z,91.14
2023-01-13T21:10:52.549Z,91.75
2023-01-13T21:15:04.112Z,91.94
2023-01-13T21:19:10.759Z,92.24
2023-01-13T21:23:04.635Z,92.07
2023-01-13T21:27:00.211Z,91.41
2023-01-13T21:30:53.011Z,91.38
2023-01-13T21:34:45.971Z,91.91
2023-01-13T21:38:39.037Z,92.09
2023-01-13T21:42:52.857Z,91.93
2023-01-13T21:47:04.095Z,92.08
2023-01-13T21:51:01.193Z,92.86
2023-01-13T21:55:12.452Z,93.47
2023-01-13T21:59:05.292Z,93.95
2023-01-13T22:02:58.822Z,94.00
2023-01-13T22:06:51.582Z,94.13
2023-01-13T22:10:57.949Z,93.91
2023-01-13T22:14:52.266Z,93.89
2023-01-13T22:18:45.049Z,94.45
2023-01-13T22:22:38.132Z,94.56
2023-01-13T22:26:30.996Z,94.49
2023-01-13T22:30:25.207Z,93.80
2023-01-13T22:34:17.942Z,93.89
2023-01-13T22:38:12.358Z,94.15
2023-01-13T22:42:06.627Z,94.60
2023-01-13T22:46:00.030Z,94.50
2023-01-13T22:49:52.753Z,94.27
2023-01-13T22:53:45.557Z,94.24
2023-01-13T22:57:47.210Z,94.10
2023-01-13T23:01:42.492Z,93.89
2023-01-13T23:05:35.278Z,93.70
2023-01-13T23:09:30.891Z,94.36
2023-01-13T23:13:23.715Z,94.35
2023-01-13T23:17:16.493Z,94.21
2023-01-13T23:21:11.917Z,93.84
2023-01-13T23:25:04.877Z,93.74
2023-01-13T23:29:06.858Z,93.77
2023-01-13T23:32:59.521Z,94.13
2023-01-13T23:36:52.218Z,94.19
2023-01-13T23:40:46.259Z,94.10
2023-01-13T23:44:39.020Z,94.31
2023-01-13T23:48:33.025Z,94.21
2023-01-13T23:52:25.708Z,94.37
2023-01-13T23:56:21.713Z,94.48
